sensor_id;sensor_type;location;lat;lon;timestamp;P1;durP1;ratioP1;P2;durP2;ratioP2
3683;SDS011;1858;48.716;9.648;2022-11-11T00:03:59;4.60;;;2.70;;
3683;SDS011;1858;48.716;9.648;2022-11-11T00:06:28;2.70;;;1.70;;
3683;SDS011;1858;48.716;9.648;2022-11-11T00:08:56;4.30;;;1.67;;
3683;SDS011;1858;48.716;9.648;2022-11-11T00:11:25;5.47;;;2.07;;
3683;SDS011;1858;48.716;9.648;2022-11-11T00:13:53;2.30;;;1.60;;
3683;SDS011;1858;48.716;9.648;2022-11-11T00:16:21;3.43;;;1.70;;
3683;SDS011;1858;48.716;9.648;2022-11-11T00:18:50;8.70;;;1.80;;
3683;SDS011;1858;48.716;9.648;2022-11-11T00:21:36;4.07;;;2.13;;
3683;SDS011;1858;48.716;9.648;2022-11-11T00:24:24;2.80;;;1.97;;
3683;SDS011;1858;48.716;9.648;2022-11-11T00:30:02;3.30;;;1.97;;
3683;SDS011;1858;48.716;9.648;2022-11-11T00:32:31;3.07;;;2.00;;
3683;SDS011;1858;48.716;9.648;2022-11-11T00:35:00;4.03;;;2.47;;
3683;SDS011;1858;48.716;9.648;2022-11-11T00:37:46;3.67;;;1.87;;
3683;SDS011;1858;48.716;9.648;2022-11-11T00:40:14;2.90;;;2.00;;
3683;SDS011;1858;48.716;9.648;2022-11-11T00:42:43;2.33;;;1.73;;
3683;SDS011;1858;48.716;9.648;2022-11-11T00:45:11;2.73;;;1.97;;
3683;SDS011;1858;48.716;9.648;2022-11-11T00:47:39;3.97;;;2.07;;
3683;SDS011;1858;48.716;9.648;2022-11-11T00:50:27;2.93;;;1.60;;
3683;SDS011;1858;48.716;9.648;2022-11-11T00:53:14;4.50;;;2.00;;
3683;SDS011;1858;48.716;9.648;2022-11-11T00:55:45;5.17;;;2.30;;
3683;SDS011;1858;48.716;9.648;2022-11-11T00:58:13;1.80;;;1.23;;
3683;SDS011;1858;48.716;9.648;2022-11-11T01:00:43;3.20;;;1.90;;
3683;SDS011;1858;48.716;9.648;2022-11-11T01:03:11;4.70;;;2.13;;
3683;SDS011;1858;48.716;9.648;2022-11-11T01:08:28;3.30;;;2.20;;
3683;SDS011;1858;48.716;9.648;2022-11-11T01:10:57;2.27;;;1.30;;
3683;SDS011;1858;48.716;9.648;2022-11-11T01:13:29;3.93;;;2.40;;
3683;SDS011;1858;48.716;9.648;2022-11-11T01:16:21;3.40;;;2.13;;
3683;SDS011;1858;48.716;9.648;2022-11-11T01:19:07;1.93;;;1.00;;
3683;SDS011;1858;48.716;9.648;2022-11-11T01:21:35;3.13;;;1.30;;
3683;SDS011;1858;48.716;9.648;2022-11-11T01:24:04;1.90;;;1.13;;
3683;SDS011;1858;48.716;9.648;2022-11-11T01:26:32;3.50;;;2.30;;
3683;SDS011;1858;48.716;9.648;2022-11-11T01:29:00;4.60;;;1.47;;
3683;SDS011;1858;48.716;9.648;2022-11-11T01:31:29;8.23;;;1.97;;
3683;SDS011;1858;48.716;9.648;2022-11-11T01:33:57;3.03;;;1.87;;
3683;SDS011;1858;48.716;9.648;2022-11-11T01:36:26;2.83;;;2.07;;
3683;SDS011;1858;48.716;9.648;2022-11-11T01:38:55;5.07;;;3.00;;
3683;SDS011;1858;48.716;9.648;2022-11-11T01:41:26;4.27;;;2.40;;
3683;SDS011;1858;48.716;9.648;2022-11-11T01:44:00;2.57;;;1.90;;
3683;SDS011;1858;48.716;9.648;2022-11-11T01:46:44;2.70;;;1.70;;
3683;SDS011;1858;48.716;9.648;2022-11-11T01:49:28;4.90;;;1.90;;
3683;SDS011;1858;48.716;9.648;2022-11-11T01:55:01;2.40;;;1.60;;
3683;SDS011;1858;48.716;9.648;2022-11-11T01:57:46;2.67;;;2.10;;
3683;SDS011;1858;48.716;9.648;2022-11-11T02:03:22;3.60;;;1.93;;
3683;SDS011;1858;48.716;9.648;2022-11-11T02:05:54;3.40;;;1.60;;
3683;SDS011;1858;48.716;9.648;2022-11-11T02:11:12;2.47;;;1.87;;
3683;SDS011;1858;48.716;9.648;2022-11-11T02:14:01;1.63;;;1.00;;
3683;SDS011;1858;48.716;9.648;2022-11-11T02:16:48;2.07;;;1.20;;
3683;SDS011;1858;48.716;9.648;2022-11-11T02:19:18;2.60;;;1.20;;
3683;SDS011;1858;48.716;9.648;2022-11-11T02:21:52;3.10;;;1.30;;
3683;SDS011;1858;48.716;9.648;2022-11-11T02:24:23;2.60;;;1.53;;
3683;SDS011;1858;48.716;9.648;2022-11-11T02:32:30;2.80;;;1.80;;
3683;SDS011;1858;48.716;9.648;2022-11-11T02:34:59;2.10;;;1.60;;
3683;SDS011;1858;48.716;9.648;2022-11-11T02:37:27;3.43;;;2.10;;
3683;SDS011;1858;48.716;9.648;2022-11-11T02:39:57;2.63;;;1.70;;
3683;SDS011;1858;48.716;9.648;2022-11-11T02:42:27;2.73;;;1.70;;
3683;SDS011;1858;48.716;9.648;2022-11-11T02:44:56;2.17;;;1.57;;
3683;SDS011;1858;48.716;9.648;2022-11-11T02:47:25;4.13;;;2.07;;
3683;SDS011;1858;48.716;9.648;2022-11-11T02:50:14;3.53;;;1.23;;
3683;SDS011;1858;48.716;9.648;2022-11-11T02:52:42;2.60;;;1.70;;
3683;SDS011;1858;48.716;9.648;2022-11-11T02:55:10;1.87;;;1.10;;
3683;SDS011;1858;48.716;9.648;2022-11-11T02:57:39;2.40;;;1.33;;
3683;SDS011;1858;48.716;9.648;2022-11-11T03:00:10;4.17;;;2.80;;
3683;SDS011;1858;48.716;9.648;2022-11-11T03:02:56;5.47;;;2.90;;
3683;SDS011;1858;48.716;9.648;2022-11-11T03:05:25;3.03;;;1.57;;
3683;SDS011;1858;48.716;9.648;2022-11-11T03:07:53;2.20;;;1.50;;
3683;SDS011;1858;48.716;9.648;2022-11-11T03:10:21;4.80;;;1.20;;
3683;SDS011;1858;48.716;9.648;2022-11-11T03:12:50;1.83;;;1.20;;
3683;SDS011;1858;48.716;9.648;2022-11-11T03:15:18;2.53;;;1.60;;
3683;SDS011;1858;48.716;9.648;2022-11-11T03:17:47;2.23;;;1.27;;
3683;SDS011;1858;48.716;9.648;2022-11-11T03:20:30;2.83;;;1.50;;
3683;SDS011;1858;48.716;9.648;2022-11-11T03:25:52;2.40;;;1.17;;
3683;SDS011;1858;48.716;9.648;2022-11-11T03:28:21;2.17;;;1.13;;
3683;SDS011;1858;48.716;9.648;2022-11-11T03:30:52;3.10;;;1.77;;
3683;SDS011;1858;48.716;9.648;2022-11-11T03:33:20;3.83;;;1.37;;
3683;SDS011;1858;48.716;9.648;2022-11-11T03:35:48;2.67;;;1.93;;
3683;SDS011;1858;48.716;9.648;2022-11-11T03:43:52;2.20;;;1.50;;
3683;SDS011;1858;48.716;9.648;2022-11-11T03:49:08;3.00;;;1.93;;
3683;SDS011;1858;48.716;9.648;2022-11-11T03:51:37;7.30;;;2.33;;
3683;SDS011;1858;48.716;9.648;2022-11-11T03:54:05;1.93;;;1.60;;
3683;SDS011;1858;48.716;9.648;2022-11-11T03:56:33;2.77;;;2.30;;
3683;SDS011;1858;48.716;9.648;2022-11-11T03:59:02;2.03;;;1.03;;
3683;SDS011;1858;48.716;9.648;2022-11-11T04:01:30;1.60;;;1.07;;
3683;SDS011;1858;48.716;9.648;2022-11-11T04:04:16;7.50;;;1.80;;
3683;SDS011;1858;48.716;9.648;2022-11-11T04:07:02;1.73;;;0.90;;
3683;SDS011;1858;48.716;9.648;2022-11-11T04:12:51;2.40;;;1.67;;
3683;SDS011;1858;48.716;9.648;2022-11-11T04:18:37;3.03;;;1.87;;
3683;SDS011;1858;48.716;9.648;2022-11-11T04:21:20;2.50;;;1.27;;
3683;SDS011;1858;48.716;9.648;2022-11-11T04:24:12;2.37;;;1.50;;
3683;SDS011;1858;48.716;9.648;2022-11-11T04:27:00;4.40;;;2.10;;
3683;SDS011;1858;48.716;9.648;2022-11-11T04:32:19;2.90;;;1.60;;
3683;SDS011;1858;48.716;9.648;2022-11-11T04:35:11;3.50;;;1.93;;
3683;SDS011;1858;48.716;9.648;2022-11-11T04:40:46;2.63;;;1.20;;
3683;SDS011;1858;48.716;9.648;2022-11-11T04:43:51;3.50;;;2.20;;
3683;SDS011;1858;48.716;9.648;2022-11-11T04:46:37;2.93;;;1.77;;
3683;SDS011;1858;48.716;9.648;2022-11-11T04:49:05;1.97;;;1.43;;
3683;SDS011;1858;48.716;9.648;2022-11-11T04:51:34;3.20;;;1.40;;
3683;SDS011;1858;48.716;9.648;2022-11-11T04:54:20;3.73;;;1.97;;
3683;SDS011;1858;48.716;9.648;2022-11-11T04:56:49;2.30;;;1.40;;
3683;SDS011;1858;48.716;9.648;2022-11-11T04:59:17;4.50;;;2.03;;
3683;SDS011;1858;48.716;9.648;2022-11-11T05:01:46;2.27;;;1.30;;
3683;SDS011;1858;48.716;9.648;2022-11-11T05:10:26;4.43;;;2.00;;
3683;SDS011;1858;48.716;9.648;2022-11-11T05:15:59;3.03;;;1.33;;
3683;SDS011;1858;48.716;9.648;2022-11-11T05:18:46;2.20;;;1.37;;
3683;SDS011;1858;48.716;9.648;2022-11-11T05:21:32;3.00;;;1.87;;
3683;SDS011;1858;48.716;9.648;2022-11-11T05:24:01;5.20;;;1.70;;
3683;SDS011;1858;48.716;9.648;2022-11-11T05:26:47;4.03;;;2.00;;
3683;SDS011;1858;48.716;9.648;2022-11-11T05:29:22;4.87;;;2.67;;
3683;SDS011;1858;48.716;9.648;2022-11-11T05:31:50;7.80;;;3.30;;
3683;SDS011;1858;48.716;9.648;2022-11-11T05:34:19;5.40;;;2.60;;
3683;SDS011;1858;48.716;9.648;2022-11-11T05:36:47;6.60;;;2.70;;
3683;SDS011;1858;48.716;9.648;2022-11-11T05:39:15;6.07;;;2.40;;
3683;SDS011;1858;48.716;9.648;2022-11-11T05:41:44;7.33;;;3.73;;
3683;SDS011;1858;48.716;9.648;2022-11-11T05:49:41;4.13;;;2.10;;
3683;SDS011;1858;48.716;9.648;2022-11-11T05:52:10;3.53;;;1.77;;
3683;SDS011;1858;48.716;9.648;2022-11-11T05:54:42;5.33;;;2.73;;
3683;SDS011;1858;48.716;9.648;2022-11-11T05:57:11;2.67;;;1.50;;
3683;SDS011;1858;48.716;9.648;2022-11-11T05:59:40;4.07;;;2.43;;
3683;SDS011;1858;48.716;9.648;2022-11-11T06:02:09;3.03;;;1.97;;
3683;SDS011;1858;48.716;9.648;2022-11-11T06:04:37;2.50;;;1.63;;
3683;SDS011;1858;48.716;9.648;2022-11-11T06:07:06;5.43;;;2.63;;
3683;SDS011;1858;48.716;9.648;2022-11-11T06:09:34;3.30;;;2.43;;
3683;SDS011;1858;48.716;9.648;2022-11-11T06:12:02;4.53;;;2.80;;
3683;SDS011;1858;48.716;9.648;2022-11-11T06:14:31;5.63;;;2.07;;
3683;SDS011;1858;48.716;9.648;2022-11-11T06:16:59;3.13;;;2.80;;
3683;SDS011;1858;48.716;9.648;2022-11-11T06:19:28;5.67;;;3.40;;
3683;SDS011;1858;48.716;9.648;2022-11-11T06:21:56;3.00;;;2.10;;
3683;SDS011;1858;48.716;9.648;2022-11-11T06:24:26;3.33;;;2.20;;
3683;SDS011;1858;48.716;9.648;2022-11-11T06:26:54;5.20;;;2.90;;
3683;SDS011;1858;48.716;9.648;2022-11-11T06:29:23;4.20;;;3.43;;
3683;SDS011;1858;48.716;9.648;2022-11-11T06:31:51;4.10;;;3.00;;
3683;SDS011;1858;48.716;9.648;2022-11-11T06:34:19;5.97;;;2.97;;
3683;SDS011;1858;48.716;9.648;2022-11-11T06:36:48;4.70;;;4.00;;
3683;SDS011;1858;48.716;9.648;2022-11-11T06:39:17;4.40;;;3.30;;
3683;SDS011;1858;48.716;9.648;2022-11-11T06:44:33;5.70;;;2.70;;
3683;SDS011;1858;48.716;9.648;2022-11-11T06:47:01;10.63;;;3.50;;
3683;SDS011;1858;48.716;9.648;2022-11-11T06:49:29;4.50;;;3.13;;
3683;SDS011;1858;48.716;9.648;2022-11-11T06:51:58;5.27;;;3.20;;
3683;SDS011;1858;48.716;9.648;2022-11-11T06:54:26;4.33;;;2.97;;
3683;SDS011;1858;48.716;9.648;2022-11-11T06:56:54;3.67;;;1.73;;
3683;SDS011;1858;48.716;9.648;2022-11-11T06:59:23;5.43;;;2.47;;
3683;SDS011;1858;48.716;9.648;2022-11-11T07:01:51;3.43;;;1.80;;
3683;SDS011;1858;48.716;9.648;2022-11-11T07:04:20;3.70;;;2.40;;
3683;SDS011;1858;48.716;9.648;2022-11-11T07:06:48;5.90;;;3.60;;
3683;SDS011;1858;48.716;9.648;2022-11-11T07:09:16;3.50;;;1.70;;
3683;SDS011;1858;48.716;9.648;2022-11-11T07:11:45;8.20;;;2.10;;
3683;SDS011;1858;48.716;9.648;2022-11-11T07:14:13;4.13;;;2.13;;
3683;SDS011;1858;48.716;9.648;2022-11-11T07:16:43;3.53;;;1.83;;
3683;SDS011;1858;48.716;9.648;2022-11-11T07:19:11;2.50;;;1.70;;
3683;SDS011;1858;48.716;9.648;2022-11-11T07:21:39;5.93;;;2.77;;
3683;SDS011;1858;48.716;9.648;2022-11-11T07:24:08;4.10;;;2.57;;
3683;SDS011;1858;48.716;9.648;2022-11-11T07:26:36;11.03;;;2.17;;
3683;SDS011;1858;48.716;9.648;2022-11-11T07:29:05;5.37;;;2.87;;
3683;SDS011;1858;48.716;9.648;2022-11-11T07:31:33;3.83;;;2.07;;
3683;SDS011;1858;48.716;9.648;2022-11-11T07:34:02;5.83;;;3.40;;
3683;SDS011;1858;48.716;9.648;2022-11-11T07:36:30;4.57;;;3.13;;
3683;SDS011;1858;48.716;9.648;2022-11-11T07:38:58;5.00;;;3.33;;
3683;SDS011;1858;48.716;9.648;2022-11-11T07:41:27;6.07;;;2.83;;
3683;SDS011;1858;48.716;9.648;2022-11-11T07:43:55;3.73;;;2.97;;
3683;SDS011;1858;48.716;9.648;2022-11-11T07:46:24;4.43;;;3.50;;
3683;SDS011;1858;48.716;9.648;2022-11-11T07:48:53;4.53;;;3.07;;
3683;SDS011;1858;48.716;9.648;2022-11-11T07:51:21;5.67;;;3.83;;
3683;SDS011;1858;48.716;9.648;2022-11-11T07:53:49;3.80;;;2.87;;
3683;SDS011;1858;48.716;9.648;2022-11-11T07:56:18;5.43;;;2.87;;
3683;SDS011;1858;48.716;9.648;2022-11-11T07:58:46;5.23;;;2.53;;
3683;SDS011;1858;48.716;9.648;2022-11-11T08:09:39;4.17;;;3.20;;
3683;SDS011;1858;48.716;9.648;2022-11-11T08:12:08;5.00;;;2.60;;
3683;SDS011;1858;48.716;9.648;2022-11-11T08:14:54;5.53;;;3.23;;
3683;SDS011;1858;48.716;9.648;2022-11-11T08:17:22;4.57;;;2.63;;
3683;SDS011;1858;48.716;9.648;2022-11-11T08:19:51;5.60;;;2.63;;
3683;SDS011;1858;48.716;9.648;2022-11-11T08:22:19;4.87;;;4.37;;
3683;SDS011;1858;48.716;9.648;2022-11-11T08:24:47;8.87;;;4.23;;
3683;SDS011;1858;48.716;9.648;2022-11-11T08:27:16;5.13;;;2.33;;
3683;SDS011;1858;48.716;9.648;2022-11-11T08:29:44;8.50;;;3.30;;
3683;SDS011;1858;48.716;9.648;2022-11-11T08:32:12;9.40;;;3.20;;
3683;SDS011;1858;48.716;9.648;2022-11-11T08:34:41;5.57;;;3.67;;
3683;SDS011;1858;48.716;9.648;2022-11-11T08:37:10;5.43;;;2.80;;
3683;SDS011;1858;48.716;9.648;2022-11-11T08:39:38;2.90;;;2.23;;
3683;SDS011;1858;48.716;9.648;2022-11-11T08:42:06;4.73;;;2.30;;
3683;SDS011;1858;48.716;9.648;2022-11-11T08:44:35;4.10;;;2.27;;
3683;SDS011;1858;48.716;9.648;2022-11-11T08:47:03;7.57;;;2.93;;
3683;SDS011;1858;48.716;9.648;2022-11-11T08:49:32;4.70;;;2.90;;
3683;SDS011;1858;48.716;9.648;2022-11-11T08:52:00;6.03;;;2.70;;
3683;SDS011;1858;48.716;9.648;2022-11-11T08:54:28;4.60;;;3.20;;
3683;SDS011;1858;48.716;9.648;2022-11-11T08:56:57;5.20;;;3.03;;
3683;SDS011;1858;48.716;9.648;2022-11-11T08:59:25;3.87;;;3.00;;
3683;SDS011;1858;48.716;9.648;2022-11-11T09:01:53;14.20;;;4.40;;
3683;SDS011;1858;48.716;9.648;2022-11-11T09:04:22;6.57;;;3.77;;
3683;SDS011;1858;48.716;9.648;2022-11-11T09:06:50;8.23;;;3.27;;
3683;SDS011;1858;48.716;9.648;2022-11-11T09:09:23;4.83;;;3.13;;
3683;SDS011;1858;48.716;9.648;2022-11-11T09:11:52;4.03;;;1.57;;
3683;SDS011;1858;48.716;9.648;2022-11-11T09:14:20;5.50;;;2.60;;
3683;SDS011;1858;48.716;9.648;2022-11-11T09:19:36;4.17;;;2.43;;
3683;SDS011;1858;48.716;9.648;2022-11-11T09:22:04;3.73;;;2.53;;
3683;SDS011;1858;48.716;9.648;2022-11-11T09:24:33;5.50;;;2.90;;
3683;SDS011;1858;48.716;9.648;2022-11-11T09:27:01;5.30;;;2.77;;
3683;SDS011;1858;48.716;9.648;2022-11-11T09:29:30;3.20;;;2.20;;
3683;SDS011;1858;48.716;9.648;2022-11-11T09:31:58;3.80;;;2.10;;
3683;SDS011;1858;48.716;9.648;2022-11-11T09:34:26;3.20;;;2.03;;
3683;SDS011;1858;48.716;9.648;2022-11-11T09:36:55;3.83;;;2.23;;
3683;SDS011;1858;48.716;9.648;2022-11-11T09:39:23;3.27;;;2.30;;
3683;SDS011;1858;48.716;9.648;2022-11-11T09:44:56;5.33;;;2.97;;
3683;SDS011;1858;48.716;9.648;2022-11-11T09:50:24;8.30;;;2.90;;
3683;SDS011;1858;48.716;9.648;2022-11-11T09:55:48;10.63;;;3.43;;
3683;SDS011;1858;48.716;9.648;2022-11-11T09:58:18;8.47;;;3.13;;
3683;SDS011;1858;48.716;9.648;2022-11-11T10:00:57;4.00;;;2.63;;
3683;SDS011;1858;48.716;9.648;2022-11-11T10:03:23;2.63;;;1.87;;
3683;SDS011;1858;48.716;9.648;2022-11-11T10:05:58;4.37;;;2.40;;
3683;SDS011;1858;48.716;9.648;2022-11-11T10:08:59;2.80;;;1.93;;
3683;SDS011;1858;48.716;9.648;2022-11-11T10:14:32;3.97;;;2.60;;
3683;SDS011;1858;48.716;9.648;2022-11-11T10:20:10;4.77;;;2.23;;
3683;SDS011;1858;48.716;9.648;2022-11-11T10:23:01;3.90;;;2.93;;
3683;SDS011;1858;48.716;9.648;2022-11-11T10:25:31;6.20;;;2.90;;
3683;SDS011;1858;48.716;9.648;2022-11-11T10:28:00;5.17;;;2.87;;
3683;SDS011;1858;48.716;9.648;2022-11-11T10:30:31;4.70;;;2.90;;
3683;SDS011;1858;48.716;9.648;2022-11-11T10:35:49;8.60;;;3.53;;
3683;SDS011;1858;48.716;9.648;2022-11-11T10:38:30;8.30;;;3.53;;
3683;SDS011;1858;48.716;9.648;2022-11-11T10:41:19;4.57;;;3.03;;
3683;SDS011;1858;48.716;9.648;2022-11-11T10:43:45;5.40;;;2.60;;
3683;SDS011;1858;48.716;9.648;2022-11-11T10:49:10;4.87;;;3.27;;
3683;SDS011;1858;48.716;9.648;2022-11-11T10:51:56;5.93;;;3.00;;
3683;SDS011;1858;48.716;9.648;2022-11-11T10:57:35;4.57;;;2.63;;
3683;SDS011;1858;48.716;9.648;2022-11-11T11:00:20;3.70;;;2.40;;
3683;SDS011;1858;48.716;9.648;2022-11-11T11:02:50;4.50;;;2.50;;
3683;SDS011;1858;48.716;9.648;2022-11-11T11:05:21;4.17;;;2.33;;
3683;SDS011;1858;48.716;9.648;2022-11-11T11:07:53;4.27;;;2.70;;
3683;SDS011;1858;48.716;9.648;2022-11-11T11:13:15;5.13;;;2.40;;
3683;SDS011;1858;48.716;9.648;2022-11-11T11:15:46;4.27;;;2.00;;
3683;SDS011;1858;48.716;9.648;2022-11-11T11:18:17;2.83;;;1.90;;
3683;SDS011;1858;48.716;9.648;2022-11-11T11:21:07;4.13;;;2.23;;
3683;SDS011;1858;48.716;9.648;2022-11-11T11:26:41;4.70;;;2.63;;
3683;SDS011;1858;48.716;9.648;2022-11-11T11:29:00;7.77;;;3.63;;
3683;SDS011;1858;48.716;9.648;2022-11-11T11:31:36;5.43;;;2.77;;
3683;SDS011;1858;48.716;9.648;2022-11-11T11:34:06;4.60;;;2.83;;
3683;SDS011;1858;48.716;9.648;2022-11-11T11:36:35;5.53;;;2.30;;
3683;SDS011;1858;48.716;9.648;2022-11-11T11:39:03;5.13;;;2.83;;
3683;SDS011;1858;48.716;9.648;2022-11-11T11:44:25;5.47;;;3.23;;
3683;SDS011;1858;48.716;9.648;2022-11-11T11:46:57;5.00;;;3.87;;
3683;SDS011;1858;48.716;9.648;2022-11-11T11:55:43;4.80;;;2.40;;
3683;SDS011;1858;48.716;9.648;2022-11-11T12:01:18;4.50;;;2.70;;
3683;SDS011;1858;48.716;9.648;2022-11-11T12:04:21;4.47;;;2.60;;
3683;SDS011;1858;48.716;9.648;2022-11-11T12:09:42;4.70;;;2.87;;
3683;SDS011;1858;48.716;9.648;2022-11-11T12:15:27;4.83;;;3.20;;
3683;SDS011;1858;48.716;9.648;2022-11-11T12:21:10;5.50;;;3.10;;
3683;SDS011;1858;48.716;9.648;2022-11-11T12:24:00;4.10;;;2.63;;
3683;SDS011;1858;48.716;9.648;2022-11-11T12:26:52;4.80;;;3.03;;
3683;SDS011;1858;48.716;9.648;2022-11-11T12:29:33;4.00;;;2.70;;
3683;SDS011;1858;48.716;9.648;2022-11-11T12:41:44;7.40;;;3.53;;
3683;SDS011;1858;48.716;9.648;2022-11-11T12:44:18;8.10;;;4.47;;
3683;SDS011;1858;48.716;9.648;2022-11-11T12:47:01;8.47;;;5.70;;
3683;SDS011;1858;48.716;9.648;2022-11-11T12:49:43;9.47;;;4.10;;
3683;SDS011;1858;48.716;9.648;2022-11-11T12:55:18;5.70;;;4.30;;
3683;SDS011;1858;48.716;9.648;2022-11-11T13:00:39;3.57;;;2.67;;
3683;SDS011;1858;48.716;9.648;2022-11-11T13:06:40;7.53;;;3.80;;
3683;SDS011;1858;48.716;9.648;2022-11-11T13:15:21;6.50;;;3.87;;
3683;SDS011;1858;48.716;9.648;2022-11-11T13:17:52;5.93;;;3.50;;
3683;SDS011;1858;48.716;9.648;2022-11-11T13:20:42;8.17;;;4.00;;
3683;SDS011;1858;48.716;9.648;2022-11-11T13:23:12;7.90;;;4.17;;
3683;SDS011;1858;48.716;9.648;2022-11-11T13:25:45;5.43;;;4.00;;
3683;SDS011;1858;48.716;9.648;2022-11-11T13:28:17;7.13;;;3.87;;
3683;SDS011;1858;48.716;9.648;2022-11-11T13:33:49;4.70;;;3.10;;
3683;SDS011;1858;48.716;9.648;2022-11-11T13:36:20;7.70;;;3.57;;
3683;SDS011;1858;48.716;9.648;2022-11-11T13:38:54;5.27;;;3.50;;
3683;SDS011;1858;48.716;9.648;2022-11-11T13:41:31;14.03;;;4.07;;
3683;SDS011;1858;48.716;9.648;2022-11-11T13:43:58;6.50;;;2.70;;
3683;SDS011;1858;48.716;9.648;2022-11-11T13:49:20;4.47;;;2.20;;
3683;SDS011;1858;48.716;9.648;2022-11-11T13:51:57;4.50;;;2.70;;
3683;SDS011;1858;48.716;9.648;2022-11-11T13:57:18;4.93;;;2.80;;
3683;SDS011;1858;48.716;9.648;2022-11-11T13:59:58;4.30;;;2.23;;
3683;SDS011;1858;48.716;9.648;2022-11-11T14:12:55;6.30;;;2.07;;
3683;SDS011;1858;48.716;9.648;2022-11-11T14:15:44;4.03;;;2.40;;
3683;SDS011;1858;48.716;9.648;2022-11-11T14:18:32;4.10;;;1.80;;
3683;SDS011;1858;48.716;9.648;2022-11-11T14:21:08;3.20;;;1.33;;
3683;SDS011;1858;48.716;9.648;2022-11-11T14:23:40;3.13;;;1.70;;
3683;SDS011;1858;48.716;9.648;2022-11-11T14:34:58;2.00;;;1.47;;
3683;SDS011;1858;48.716;9.648;2022-11-11T14:40:32;3.20;;;1.90;;
3683;SDS011;1858;48.716;9.648;2022-11-11T14:43:32;4.03;;;2.27;;
3683;SDS011;1858;48.716;9.648;2022-11-11T14:45:54;3.20;;;1.60;;
3683;SDS011;1858;48.716;9.648;2022-11-11T14:51:36;8.60;;;3.30;;
3683;SDS011;1858;48.716;9.648;2022-11-11T14:54:20;4.53;;;2.70;;
3683;SDS011;1858;48.716;9.648;2022-11-11T14:56:52;15.20;;;4.00;;
3683;SDS011;1858;48.716;9.648;2022-11-11T14:59:23;4.83;;;2.70;;
3683;SDS011;1858;48.716;9.648;2022-11-11T15:01:54;5.93;;;3.30;;
3683;SDS011;1858;48.716;9.648;2022-11-11T15:04:24;5.10;;;2.90;;
3683;SDS011;1858;48.716;9.648;2022-11-11T15:13:05;16.90;;;2.87;;
3683;SDS011;1858;48.716;9.648;2022-11-11T15:32:24;8.43;;;2.50;;
3683;SDS011;1858;48.716;9.648;2022-11-11T15:35:12;3.50;;;2.40;;
3683;SDS011;1858;48.716;9.648;2022-11-11T15:37:58;7.97;;;3.20;;
3683;SDS011;1858;48.716;9.648;2022-11-11T15:40:52;7.50;;;4.30;;
3683;SDS011;1858;48.716;9.648;2022-11-11T15:43:19;6.13;;;2.77;;
3683;SDS011;1858;48.716;9.648;2022-11-11T15:45:50;5.83;;;3.23;;
3683;SDS011;1858;48.716;9.648;2022-11-11T15:48:21;8.50;;;3.20;;
3683;SDS011;1858;48.716;9.648;2022-11-11T15:50:52;4.83;;;2.70;;
3683;SDS011;1858;48.716;9.648;2022-11-11T15:53:22;12.20;;;3.47;;
3683;SDS011;1858;48.716;9.648;2022-11-11T15:55:53;7.03;;;3.90;;
3683;SDS011;1858;48.716;9.648;2022-11-11T15:58:27;9.80;;;4.60;;
3683;SDS011;1858;48.716;9.648;2022-11-11T16:00:58;9.93;;;3.20;;
3683;SDS011;1858;48.716;9.648;2022-11-11T16:03:34;11.30;;;4.10;;
3683;SDS011;1858;48.716;9.648;2022-11-11T16:06:11;5.47;;;3.40;;
3683;SDS011;1858;48.716;9.648;2022-11-11T16:08:47;8.53;;;3.83;;
3683;SDS011;1858;48.716;9.648;2022-11-11T16:11:13;6.77;;;2.80;;
3683;SDS011;1858;48.716;9.648;2022-11-11T16:13:45;5.20;;;3.17;;
3683;SDS011;1858;48.716;9.648;2022-11-11T16:16:33;7.50;;;3.47;;
3683;SDS011;1858;48.716;9.648;2022-11-11T16:19:38;6.67;;;4.37;;
3683;SDS011;1858;48.716;9.648;2022-11-11T16:22:08;6.43;;;2.73;;
3683;SDS011;1858;48.716;9.648;2022-11-11T16:24:51;4.70;;;2.80;;
3683;SDS011;1858;48.716;9.648;2022-11-11T16:27:24;8.10;;;4.60;;
3683;SDS011;1858;48.716;9.648;2022-11-11T16:29:54;6.40;;;2.87;;
3683;SDS011;1858;48.716;9.648;2022-11-11T16:35:27;5.80;;;4.07;;
3683;SDS011;1858;48.716;9.648;2022-11-11T16:38:05;9.63;;;4.10;;
3683;SDS011;1858;48.716;9.648;2022-11-11T16:40:54;8.00;;;3.00;;
3683;SDS011;1858;48.716;9.648;2022-11-11T16:43:27;6.20;;;3.63;;
3683;SDS011;1858;48.716;9.648;2022-11-11T16:51:03;3.77;;;2.77;;
3683;SDS011;1858;48.716;9.648;2022-11-11T16:53:35;4.77;;;2.63;;
3683;SDS011;1858;48.716;9.648;2022-11-11T16:56:05;5.90;;;2.83;;
3683;SDS011;1858;48.716;9.648;2022-11-11T16:58:36;8.63;;;4.23;;
3683;SDS011;1858;48.716;9.648;2022-11-11T17:01:06;8.27;;;3.73;;
3683;SDS011;1858;48.716;9.648;2022-11-11T17:03:35;7.43;;;3.63;;
3683;SDS011;1858;48.716;9.648;2022-11-11T17:06:07;13.63;;;4.20;;
3683;SDS011;1858;48.716;9.648;2022-11-11T17:08:39;6.53;;;3.47;;
3683;SDS011;1858;48.716;9.648;2022-11-11T17:11:10;8.23;;;3.83;;
3683;SDS011;1858;48.716;9.648;2022-11-11T17:13:40;7.80;;;3.23;;
3683;SDS011;1858;48.716;9.648;2022-11-11T17:16:09;8.03;;;3.70;;
3683;SDS011;1858;48.716;9.648;2022-11-11T17:18:39;5.57;;;2.43;;
3683;SDS011;1858;48.716;9.648;2022-11-11T17:21:07;8.07;;;4.37;;
3683;SDS011;1858;48.716;9.648;2022-11-11T17:23:38;7.13;;;3.80;;
3683;SDS011;1858;48.716;9.648;2022-11-11T17:26:06;7.23;;;3.23;;
3683;SDS011;1858;48.716;9.648;2022-11-11T17:28:35;6.23;;;3.40;;
3683;SDS011;1858;48.716;9.648;2022-11-11T17:31:04;7.43;;;3.77;;
3683;SDS011;1858;48.716;9.648;2022-11-11T17:33:35;6.53;;;3.57;;
3683;SDS011;1858;48.716;9.648;2022-11-11T17:36:04;6.40;;;3.30;;
3683;SDS011;1858;48.716;9.648;2022-11-11T17:38:36;6.40;;;3.83;;
3683;SDS011;1858;48.716;9.648;2022-11-11T17:41:04;7.70;;;3.90;;
3683;SDS011;1858;48.716;9.648;2022-11-11T17:43:33;9.43;;;3.73;;
3683;SDS011;1858;48.716;9.648;2022-11-11T17:46:01;6.07;;;3.67;;
3683;SDS011;1858;48.716;9.648;2022-11-11T17:48:31;6.50;;;4.17;;
3683;SDS011;1858;48.716;9.648;2022-11-11T17:51:01;8.93;;;3.00;;
3683;SDS011;1858;48.716;9.648;2022-11-11T17:53:34;3.87;;;2.43;;
3683;SDS011;1858;48.716;9.648;2022-11-11T17:56:03;5.77;;;2.60;;
3683;SDS011;1858;48.716;9.648;2022-11-11T17:58:53;3.70;;;2.10;;
3683;SDS011;1858;48.716;9.648;2022-11-11T18:01:21;5.70;;;3.87;;
3683;SDS011;1858;48.716;9.648;2022-11-11T18:03:53;4.03;;;2.00;;
3683;SDS011;1858;48.716;9.648;2022-11-11T18:06:23;3.80;;;2.40;;
3683;SDS011;1858;48.716;9.648;2022-11-11T18:08:52;6.07;;;3.53;;
3683;SDS011;1858;48.716;9.648;2022-11-11T18:11:21;4.73;;;3.30;;
3683;SDS011;1858;48.716;9.648;2022-11-11T18:13:49;4.53;;;2.93;;
3683;SDS011;1858;48.716;9.648;2022-11-11T18:16:20;5.00;;;2.70;;
3683;SDS011;1858;48.716;9.648;2022-11-11T18:21:36;4.47;;;2.37;;
3683;SDS011;1858;48.716;9.648;2022-11-11T18:24:07;5.87;;;3.90;;
3683;SDS011;1858;48.716;9.648;2022-11-11T18:26:37;3.83;;;2.17;;
3683;SDS011;1858;48.716;9.648;2022-11-11T18:29:06;4.47;;;2.23;;
3683;SDS011;1858;48.716;9.648;2022-11-11T18:31:55;6.73;;;3.97;;
3683;SDS011;1858;48.716;9.648;2022-11-11T18:34:24;6.30;;;3.83;;
3683;SDS011;1858;48.716;9.648;2022-11-11T18:36:52;5.17;;;2.70;;
3683;SDS011;1858;48.716;9.648;2022-11-11T18:39:21;3.50;;;2.27;;
3683;SDS011;1858;48.716;9.648;2022-11-11T18:41:49;8.03;;;2.60;;
3683;SDS011;1858;48.716;9.648;2022-11-11T18:44:18;6.20;;;3.30;;
3683;SDS011;1858;48.716;9.648;2022-11-11T18:46:46;4.03;;;2.00;;
3683;SDS011;1858;48.716;9.648;2022-11-11T18:49:15;3.90;;;1.80;;
3683;SDS011;1858;48.716;9.648;2022-11-11T18:51:43;5.10;;;3.60;;
3683;SDS011;1858;48.716;9.648;2022-11-11T18:54:13;5.30;;;3.33;;
3683;SDS011;1858;48.716;9.648;2022-11-11T18:56:41;4.23;;;2.23;;
3683;SDS011;1858;48.716;9.648;2022-11-11T18:59:10;3.90;;;2.37;;
3683;SDS011;1858;48.716;9.648;2022-11-11T19:01:38;5.50;;;2.60;;
3683;SDS011;1858;48.716;9.648;2022-11-11T19:06:55;3.73;;;2.30;;
3683;SDS011;1858;48.716;9.648;2022-11-11T19:09:25;3.70;;;2.40;;
3683;SDS011;1858;48.716;9.648;2022-11-11T19:11:54;6.80;;;2.17;;
3683;SDS011;1858;48.716;9.648;2022-11-11T19:14:22;5.83;;;2.17;;
3683;SDS011;1858;48.716;9.648;2022-11-11T19:16:52;3.80;;;3.10;;
3683;SDS011;1858;48.716;9.648;2022-11-11T19:19:26;5.00;;;2.73;;
3683;SDS011;1858;48.716;9.648;2022-11-11T19:21:55;4.90;;;3.47;;
3683;SDS011;1858;48.716;9.648;2022-11-11T19:24:24;4.33;;;2.63;;
3683;SDS011;1858;48.716;9.648;2022-11-11T19:26:53;4.80;;;2.60;;
3683;SDS011;1858;48.716;9.648;2022-11-11T19:29:21;4.40;;;2.23;;